Time;durP1;ratioP1;P1;durP2;ratioP2;P2;SDS_P1;SDS_P2;PMS_P1;PMS_P2;Temp;Humidity;BMP_temperature;BMP_pressure;BME280_temperature;BME280_humidity;BME280_pressure;Samples;Min_cycle;Max_cycle;Signal;HPM_P1;HPM_P2
2024/04/17 00:02:03;;;;;;;15.07;5.32;;;;;;;4.51;100.00;99475.50;11160885;26;20001;-36
2024/04/17 00:07:06;;;;;;;14.55;4.95;;;;;;;4.47;100.00;99473.59;11168707;26;20001;-33
2024/04/17 00:12:07;;;;;;;16.63;5.13;;;;;;;4.38;100.00;99479.28;11158508;26;20099;-34
2024/04/17 00:17:08;;;;;;;15.85;5.05;;;;;;;4.33;100.00;99484.25;11167440;26;20000;-34
2024/04/17 00:22:09;;;;;;;20.60;5.25;;;;;;;4.27;100.00;99486.56;11156941;26;20007;-33
2024/04/17 00:27:11;;;;;;;14.93;4.57;;;;;;;4.28;100.00;99484.88;11160720;26;20036;-34
2024/04/17 00:32:12;;;;;;;13.10;4.78;;;;;;;4.39;100.00;99488.78;11171049;26;20004;-34
2024/04/17 00:37:13;;;;;;;16.65;4.45;;;;;;;4.24;100.00;99499.38;11160830;26;20015;-34
2024/04/17 00:42:14;;;;;;;14.02;4.75;;;;;;;4.22;100.00;99498.44;11132872;26;20014;-33
2024/04/17 00:47:16;;;;;;;20.42;5.28;;;;;;;4.23;100.00;99500.19;11159028;26;20453;-34
2024/04/17 00:52:17;;;;;;;10.20;4.07;;;;;;;4.35;100.00;99494.66;11161399;26;20000;-33
2024/04/17 00:57:18;;;;;;;16.80;4.97;;;;;;;4.38;100.00;99493.09;11133959;26;20003;-34
2024/04/17 01:02:20;;;;;;;14.85;4.43;;;;;;;4.28;100.00;99498.72;11161170;26;20003;-34
2024/04/17 01:07:21;;;;;;;12.52;4.22;;;;;;;4.18;100.00;99501.69;11161709;26;20003;-33
2024/04/17 01:12:22;;;;;;;15.73;4.20;;;;;;;4.19;100.00;99500.91;11156341;26;20084;-35
2024/04/17 01:17:23;;;;;;;18.52;4.00;;;;;;;4.27;100.00;99494.31;11164662;26;20020;-33
2024/04/17 01:22:24;;;;;;;14.40;4.10;;;;;;;4.17;100.00;99487.00;11158307;26;20000;-35
2024/04/17 01:27:25;;;;;;;13.20;4.07;;;;;;;4.14;100.00;99485.16;11164542;26;19999;-33
2024/04/17 01:32:27;;;;;;;12.50;3.90;;;;;;;4.22;100.00;99488.09;11160303;26;20010;-34
2024/04/17 01:37:28;;;;;;;15.05;3.85;;;;;;;4.15;100.00;99478.28;11158976;26;19996;-33
2024/04/17 01:42:29;;;;;;;16.42;3.92;;;;;;;4.19;100.00;99491.44;11157954;26;19996;-34
2024/04/17 01:47:30;;;;;;;15.63;4.20;;;;;;;4.24;100.00;99494.19;11162217;26;19996;-34
2024/04/17 01:52:32;;;;;;;15.05;3.72;;;;;;;4.12;100.00;99492.00;11160368;26;19995;-33
2024/04/17 01:57:33;;;;;;;13.95;4.03;;;;;;;4.27;100.00;99489.16;11161107;26;20006;-33
2024/04/17 02:02:34;;;;;;;14.55;4.32;;;;;;;4.26;100.00;99484.81;11158224;26;20008;-35
2024/04/17 02:07:35;;;;;;;12.73;3.65;;;;;;;4.28;100.00;99496.13;11163188;26;20011;-35
2024/04/17 02:12:36;;;;;;;12.88;4.35;;;;;;;4.29;100.00;99490.13;11165237;26;20003;-34
2024/04/17 02:17:37;;;;;;;17.83;4.22;;;;;;;4.24;100.00;99485.56;11159539;26;20319;-33
2024/04/17 02:22:38;;;;;;;14.25;4.10;;;;;;;4.18;100.00;99507.75;11159834;26;20014;-34
2024/04/17 02:27:40;;;;;;;17.23;4.28;;;;;;;4.14;100.00;99504.97;11129240;26;19997;-33
2024/04/17 02:32:41;;;;;;;12.10;4.80;;;;;;;4.11;100.00;99512.59;11161935;26;20007;-34
2024/04/17 02:37:42;;;;;;;12.98;4.57;;;;;;;4.02;100.00;99505.31;11135369;26;20432;-33
2024/04/17 02:42:43;;;;;;;14.73;4.32;;;;;;;4.03;100.00;99509.69;11156370;26;19996;-33
2024/04/17 02:47:44;;;;;;;15.93;4.97;;;;;;;3.94;100.00;99522.22;11159813;26;20009;-33
2024/04/17 02:52:45;;;;;;;14.73;4.20;;;;;;;3.84;100.00;99526.09;11156732;26;20015;-33
2024/04/17 02:57:46;;;;;;;15.02;4.20;;;;;;;3.83;100.00;99516.53;11157146;26;19996;-33
2024/04/17 03:02:47;;;;;;;15.80;4.50;;;;;;;3.81;100.00;99520.78;11150920;26;19995;-33
2024/04/17 03:07:49;;;;;;;16.08;4.32;;;;;;;3.72;100.00;99516.06;11163532;26;20032;-33
2024/04/17 03:12:50;;;;;;;12.88;4.20;;;;;;;3.64;100.00;99524.28;11155745;26;19997;-34
2024/04/17 03:17:51;;;;;;;14.07;4.40;;;;;;;3.51;100.00;99521.97;11158485;26;19996;-33
2024/04/17 03:22:52;;;;;;;11.88;4.07;;;;;;;3.60;100.00;99530.13;11157329;26;20015;-34
2024/04/17 03:27:53;;;;;;;13.77;4.40;;;;;;;3.65;100.00;99533.84;11164383;26;20000;-33
2024/04/17 03:32:54;;;;;;;13.35;4.30;;;;;;;3.67;100.00;99543.41;11164520;26;20012;-34
2024/04/17 03:37:55;;;;;;;11.52;4.03;;;;;;;3.57;100.00;99538.63;11162310;26;20036;-33
2024/04/17 03:42:56;;;;;;;13.13;4.10;;;;;;;3.63;100.00;99533.75;11161276;26;20465;-33
2024/04/17 03:47:58;;;;;;;16.45;4.63;;;;;;;3.47;100.00;99532.16;11167638;26;20000;-33
2024/04/17 03:52:59;;;;;;;13.25;4.05;;;;;;;3.46;100.00;99545.00;11160543;26;20354;-33
2024/04/17 03:58:00;;;;;;;17.17;4.47;;;;;;;3.45;100.00;99551.84;11166952;26;20330;-33
2024/04/17 04:03:01;;;;;;;12.65;4.28;;;;;;;3.56;100.00;99554.06;11161762;26;20015;-34
2024/04/17 04:08:02;;;;;;;12.80;4.03;;;;;;;3.52;100.00;99552.13;11161570;26;19996;-33
2024/04/17 04:13:03;;;;;;;16.02;4.15;;;;;;;3.51;100.00;99556.44;11168104;26;19995;-34
2024/04/17 04:18:05;;;;;;;19.95;4.70;;;;;;;3.43;100.00;99553.50;11156777;26;19996;-35
2024/04/17 04:23:06;;;;;;;22.63;4.95;;;;;;;3.38;100.00;99554.09;11158733;26;20010;-33
2024/04/17 04:28:07;;;;;;;17.73;5.15;;;;;;;3.34;100.00;99557.34;11169845;26;20454;-33
2024/04/17 04:33:08;;;;;;;13.32;4.30;;;;;;;3.15;100.00;99558.16;11160850;26;20437;-33
2024/04/17 04:38:09;;;;;;;14.88;4.97;;;;;;;2.86;100.00;99559.34;11236994;21;20000;-27
2024/04/17 04:43:11;;;;;;;16.80;4.88;;;;;;;3.01;100.00;99560.06;11146837;26;20019;-27
2024/04/17 04:48:12;;;;;;;14.63;4.70;;;;;;;3.05;100.00;99556.84;11146626;26;20007;-26
2024/04/17 04:53:13;;;;;;;16.65;4.75;;;;;;;2.94;100.00;99556.31;11138670;26;20000;-26
2024/04/17 04:58:14;;;;;;;19.58;4.90;;;;;;;3.12;100.00;99563.19;11138875;26;20011;-27
2024/04/17 05:03:15;;;;;;;16.00;5.32;;;;;;;3.18;100.00;99555.75;11156123;26;20344;-27
2024/04/17 05:08:16;;;;;;;19.92;5.45;;;;;;;3.23;100.00;99562.00;11133943;26;20011;-27
2024/04/17 05:13:18;;;;;;;16.45;5.22;;;;;;;3.15;100.00;99556.47;11145263;26;20012;-27
2024/04/17 05:18:19;;;;;;;14.43;5.13;;;;;;;3.25;100.00;99569.00;11141043;26;20066;-27
2024/04/17 05:23:20;;;;;;;16.17;5.40;;;;;;;3.09;100.00;99565.63;11133907;26;20000;-27
2024/04/17 05:28:21;;;;;;;16.95;5.43;;;;;;;3.01;100.00;99563.56;11142282;26;20468;-27
2024/04/17 05:33:22;;;;;;;18.50;5.70;;;;;;;3.29;100.00;99566.56;11143823;26;20011;-27
2024/04/17 05:38:23;;;;;;;17.13;5.75;;;;;;;3.32;100.00;99565.00;11115997;26;20019;-27
2024/04/17 05:43:24;;;;;;;17.95;5.88;;;;;;;3.36;100.00;99566.94;11148019;26;20011;-27
2024/04/17 05:48:26;;;;;;;25.70;6.65;;;;;;;3.38;100.00;99570.47;11140952;26;20031;-27
2024/04/17 05:53:27;;;;;;;23.33;6.43;;;;;;;3.41;100.00;99562.88;11148991;26;20004;-27
2024/04/17 05:58:28;;;;;;;19.42;6.20;;;;;;;3.47;100.00;99570.03;11128999;26;20003;-28
2024/04/17 06:03:32;;;;;;;18.10;6.18;;;;;;;3.84;100.00;99577.78;11111242;26;20011;-27
2024/04/17 06:08:34;;;;;;;20.85;6.32;;;;;;;3.90;100.00;99578.06;11153026;26;20361;-27
2024/04/17 06:13:35;;;;;;;20.13;6.28;;;;;;;3.94;100.00;99592.88;11136693;26;20457;-27
2024/04/17 06:18:36;;;;;;;25.13;6.32;;;;;;;3.76;100.00;99592.03;11149127;26;20030;-27
2024/04/17 06:23:38;;;;;;;28.45;6.30;;;;;;;3.89;100.00;99594.38;11140163;26;20054;-27
2024/04/17 06:28:39;;;;;;;21.88;6.53;;;;;;;3.87;100.00;99598.59;11132252;26;20003;-27
2024/04/17 06:33:40;;;;;;;23.77;6.22;;;;;;;4.06;100.00;99600.31;11139491;26;20013;-27
2024/04/17 06:38:41;;;;;;;18.80;6.53;;;;;;;3.95;100.00;99602.41;11143105;26;20003;-28
2024/04/17 06:43:42;;;;;;;17.60;6.00;;;;;;;4.03;100.00;99607.03;11138354;26;20004;-27
2024/04/17 06:48:44;;;;;;;28.23;6.60;;;;;;;4.12;100.00;99612.63;11138242;26;20336;-28
2024/04/17 06:53:45;;;;;;;15.02;5.57;;;;;;;4.24;100.00;99608.00;11137396;26;20357;-27
2024/04/17 06:58:46;;;;;;;20.80;6.10;;;;;;;4.46;100.00;99608.94;11146412;26;20127;-27
2024/04/17 07:03:47;;;;;;;18.48;5.80;;;;;;;4.50;100.00;99609.13;11105415;26;20018;-27
2024/04/17 07:08:48;;;;;;;19.77;6.30;;;;;;;4.64;100.00;99610.63;11158922;26;20004;-28
2024/04/17 07:13:49;;;;;;;17.48;6.40;;;;;;;4.71;100.00;99618.66;11154659;26;20004;-27
2024/04/17 07:18:50;;;;;;;24.00;6.47;;;;;;;4.35;100.00;99611.94;11143007;26;20032;-27
2024/04/17 07:23:52;;;;;;;21.20;6.15;;;;;;;4.28;100.00;99611.59;11154303;26;20000;-28
2024/04/17 07:28:53;;;;;;;18.38;6.18;;;;;;;4.23;100.00;99611.41;11156375;26;20451;-27
2024/04/17 07:33:54;;;;;;;15.98;6.28;;;;;;;4.22;100.00;99625.16;11149111;26;19999;-28
2024/04/17 07:38:55;;;;;;;19.30;5.63;;;;;;;4.11;100.00;99629.84;11152789;26;20012;-28
2024/04/17 07:43:57;;;;;;;14.63;5.10;;;;;;;4.13;100.00;99632.50;11133384;26;20010;-27
2024/04/17 07:48:58;;;;;;;13.65;4.10;;;;;;;3.89;100.00;99634.84;11144010;26;19996;-27
2024/04/17 07:53:59;;;;;;;8.15;3.60;;;;;;;3.75;100.00;99636.78;11118555;26;20015;-28
2024/04/17 07:59:00;;;;;;;8.43;3.90;;;;;;;3.60;100.00;99639.53;11142884;26;19996;-27
2024/04/17 08:04:01;;;;;;;12.30;4.18;;;;;;;3.43;100.00;99650.78;11157946;26;20018;-27
2024/04/17 08:09:02;;;;;;;12.57;3.65;;;;;;;3.51;100.00;99644.25;11145829;26;20004;-27
2024/04/17 08:14:04;;;;;;;12.18;4.88;;;;;;;3.59;100.00;99647.22;11146795;26;20001;-27
2024/04/17 08:19:05;;;;;;;12.93;5.07;;;;;;;3.77;100.00;99648.06;11122181;26;20008;-27
2024/04/17 08:24:06;;;;;;;9.73;4.80;;;;;;;3.78;100.00;99644.69;11128799;26;20342;-29
2024/04/17 08:29:07;;;;;;;11.93;5.03;;;;;;;3.76;100.00;99642.84;11138751;26;20015;-27
2024/04/17 08:34:09;;;;;;;16.88;5.60;;;;;;;3.68;100.00;99642.50;11143974;26;20036;-27
2024/04/17 08:39:10;;;;;;;14.93;5.32;;;;;;;3.91;100.00;99643.56;11144207;26;20004;-27
2024/04/17 08:44:15;;;;;;;10.38;4.75;;;;;;;3.84;100.00;99647.56;11154351;26;20457;-28
2024/04/17 08:49:16;;;;;;;11.02;4.60;;;;;;;3.95;100.00;99642.88;11135978;26;19996;-27
2024/04/17 08:54:17;;;;;;;10.25;3.60;;;;;;;3.79;100.00;99653.31;11109094;26;20000;-27
2024/04/17 08:59:18;;;;;;;11.18;3.50;;;;;;;3.99;100.00;99647.38;11157428;26;20011;-27
2024/04/17 09:04:19;;;;;;;7.82;3.03;;;;;;;4.13;100.00;99655.78;11149142;26;20008;-27
2024/04/17 09:09:21;;;;;;;7.82;3.30;;;;;;;4.28;100.00;99643.56;11120807;26;20337;-27
2024/04/17 09:14:22;;;;;;;6.95;3.60;;;;;;;4.40;100.00;99640.59;11121714;26;20086;-27
2024/04/17 09:19:23;;;;;;;5.18;3.13;;;;;;;4.41;100.00;99642.38;11143829;26;20344;-27
2024/04/17 09:24:24;;;;;;;7.57;3.05;;;;;;;4.65;100.00;99638.25;11144983;26;20000;-27
2024/04/17 09:29:26;;;;;;;6.38;3.03;;;;;;;4.89;100.00;99642.75;11139502;26;20000;-27
2024/04/17 09:34:27;;;;;;;6.97;2.95;;;;;;;4.98;100.00;99640.53;11144106;26;20462;-27
2024/04/17 09:39:29;;;;;;;6.10;2.85;;;;;;;5.08;100.00;99631.44;11145768;26;20476;-28
2024/04/17 09:44:30;;;;;;;7.05;2.85;;;;;;;4.83;100.00;99637.31;11135930;26;20240;-28
2024/04/17 09:49:31;;;;;;;7.72;3.08;;;;;;;5.02;100.00;99628.59;11154040;26;20007;-29
2024/04/17 09:54:32;;;;;;;4.68;2.70;;;;;;;5.17;100.00;99628.34;11108203;26;20007;-28
2024/04/17 09:59:34;;;;;;;5.88;2.45;;;;;;;4.73;100.00;99624.78;11095716;26;20000;-29
2024/04/17 10:04:35;;;;;;;3.50;2.10;;;;;;;4.92;100.00;99627.34;11085305;26;20076;-28
2024/04/17 10:09:37;;;;;;;5.30;2.50;;;;;;;5.25;100.00;99625.25;11085062;26;19996;-32
2024/04/17 10:14:38;;;;;;;5.32;2.47;;;;;;;5.02;100.00;99631.19;11117867;26;20007;-29
2024/04/17 10:19:50;;;;;;;3.80;2.38;;;;;;;4.87;100.00;99632.31;11146864;26;20014;-28
2024/04/17 10:24:51;;;;;;;4.57;2.80;;;;;;;4.86;100.00;99633.13;11143818;26;20370;-28
2024/04/17 10:29:52;;;;;;;4.00;2.60;;;;;;;4.90;100.00;99631.56;11141776;26;20448;-28
2024/04/17 10:34:53;;;;;;;6.47;3.10;;;;;;;4.79;100.00;99631.13;11129881;26;20030;-28
2024/04/17 10:39:55;;;;;;;3.55;2.50;;;;;;;4.69;100.00;99625.47;11201178;20;20022;-24
2024/04/17 10:44:56;;;;;;;6.88;3.20;;;;;;;4.91;100.00;99622.97;11177917;26;20018;-23
2024/04/17 10:49:58;;;;;;;6.80;3.22;;;;;;;5.03;100.00;99618.31;11171016;26;20038;-24
2024/04/17 10:55:04;;;;;;;4.82;3.05;;;;;;;5.14;100.00;99616.16;11167924;26;20343;-24
2024/04/17 11:00:07;;;;;;;6.10;3.78;;;;;;;5.37;100.00;99613.63;11182078;26;20367;-23
2024/04/17 11:05:08;;;;;;;6.85;4.03;;;;;;;5.59;100.00;99618.84;11115304;26;20081;-23
2024/04/17 11:10:12;;;;;;;8.02;4.60;;;;;;;5.24;100.00;99610.53;11172762;26;20000;-24
2024/04/17 11:15:13;;;;;;;8.40;4.70;;;;;;;5.35;100.00;99611.84;11181145;26;20107;-24
2024/04/17 11:20:16;;;;;;;7.05;4.65;;;;;;;5.16;100.00;99614.50;11172313;26;20022;-24
2024/04/17 11:25:17;;;;;;;8.82;5.05;;;;;;;5.37;100.00;99604.13;11145695;26;20004;-24
2024/04/17 11:30:19;;;;;;;7.70;3.92;;;;;;;5.44;100.00;99610.44;11148135;26;20011;-23
2024/04/17 11:35:20;;;;;;;10.43;5.75;;;;;;;5.73;100.00;99606.41;11169094;26;20313;-23
2024/04/17 11:40:21;;;;;;;11.25;5.65;;;;;;;5.71;100.00;99600.25;11179431;26;19996;-23
2024/04/17 11:45:22;;;;;;;11.57;6.10;;;;;;;6.09;100.00;99601.78;11149399;26;19996;-23
2024/04/17 11:50:23;;;;;;;11.43;6.53;;;;;;;6.08;100.00;99606.88;11188757;26;20333;-24
2024/04/17 11:55:24;;;;;;;12.73;6.68;;;;;;;6.60;100.00;99598.41;11192612;26;19996;-23
2024/04/17 12:00:25;;;;;;;11.93;6.55;;;;;;;6.60;100.00;99591.50;11175080;26;20360;-24
2024/04/17 12:05:26;;;;;;;6.28;2.88;;;;;;;5.59;100.00;99614.53;11186624;26;20020;-23
2024/04/17 12:10:28;;;;;;;3.58;1.98;;;;;;;4.35;100.00;99614.53;11195401;26;20015;-23
2024/04/17 12:15:29;;;;;;;3.58;1.88;;;;;;;3.87;100.00;99619.28;11189570;26;20344;-23
2024/04/17 12:20:30;;;;;;;3.15;2.17;;;;;;;3.81;100.00;99624.16;11154535;26;20455;-24
2024/04/17 12:30:51;;;;;;;6.15;2.42;;;;;;;4.17;100.00;99608.53;11187223;26;20003;-23
2024/04/17 12:35:52;;;;;;;5.80;2.58;;;;;;;4.25;100.00;99612.38;11197712;26;20528;-23
2024/04/17 12:40:53;;;;;;;4.93;3.10;;;;;;;4.53;100.00;99613.56;11190657;26;20011;-24
2024/04/17 12:45:54;;;;;;;5.00;2.70;;;;;;;4.70;100.00;99604.84;11197224;26;20023;-24
2024/04/17 12:50:56;;;;;;;7.15;2.85;;;;;;;5.01;100.00;99600.91;11192590;26;20004;-24
2024/04/17 12:55:58;;;;;;;7.90;3.33;;;;;;;5.27;100.00;99605.47;11194546;26;20016;-23
2024/04/17 13:01:03;;;;;;;6.03;3.35;;;;;;;5.60;100.00;99597.25;11196023;26;20002;-24
2024/04/17 13:06:05;;;;;;;7.35;3.50;;;;;;;5.70;100.00;99596.78;11156958;26;20076;-23
2024/04/17 13:11:06;;;;;;;6.93;3.63;;;;;;;6.00;100.00;99586.75;11195883;26;20639;-23
2024/04/17 13:16:07;;;;;;;6.15;3.17;;;;;;;6.16;100.00;99585.59;11191989;26;20012;-27
2024/04/17 13:21:08;;;;;;;7.97;3.97;;;;;;;6.48;100.00;99580.69;11196525;26;20407;-23
2024/04/17 13:26:09;;;;;;;7.00;3.60;;;;;;;6.68;100.00;99583.97;11183242;26;20444;-23
2024/04/17 13:31:11;;;;;;;7.13;3.53;;;;;;;6.44;100.00;99571.03;11167284;26;19996;-23
2024/04/17 13:36:12;;;;;;;6.68;3.80;;;;;;;6.61;100.00;99569.88;11174916;26;20000;-23
2024/04/17 13:41:14;;;;;;;8.65;3.90;;;;;;;6.56;100.00;99578.34;11179337;26;20351;-24
2024/04/17 13:46:19;;;;;;;5.22;1.90;;;;;;;5.82;100.00;99599.84;11172659;26;20015;-23
2024/04/17 13:51:20;;;;;;;5.50;1.98;;;;;;;5.24;100.00;99589.81;11148938;26;20022;-23
2024/04/17 13:56:23;;;;;;;3.95;2.00;;;;;;;5.38;100.00;99597.25;11175229;26;20003;-24
2024/04/17 14:01:24;;;;;;;3.72;1.70;;;;;;;5.39;100.00;99593.81;11172843;26;20013;-23
2024/04/17 14:06:25;;;;;;;3.60;1.60;;;;;;;5.31;100.00;99580.56;11179020;26;20003;-23
2024/04/17 14:11:26;;;;;;;4.95;1.92;;;;;;;5.35;100.00;99580.75;11176561;26;20015;-24
2024/04/17 14:16:28;;;;;;;5.25;2.00;;;;;;;5.44;100.00;99584.53;11177265;26;20026;-23
2024/04/17 14:21:29;;;;;;;4.63;1.95;;;;;;;5.50;100.00;99580.47;11176366;26;19995;-23
2024/04/17 14:26:30;;;;;;;4.47;1.70;;;;;;;5.43;100.00;99580.19;11171923;26;20000;-23
2024/04/17 14:31:31;;;;;;;2.90;1.92;;;;;;;5.52;100.00;99559.81;11182743;26;20355;-23
2024/04/17 14:36:33;;;;;;;13.93;6.10;;;;;;;5.51;100.00;99558.03;11174057;26;20730;-23
2024/04/17 14:41:34;;;;;;;3.10;1.70;;;;;;;5.62;100.00;99558.47;11177466;26;20384;-23
2024/04/17 14:46:35;;;;;;;3.22;1.50;;;;;;;5.45;100.00;99560.38;11180247;26;20070;-24
2024/04/17 14:51:36;;;;;;;2.60;1.60;;;;;;;5.44;100.00;99554.31;11178746;26;20456;-23
2024/04/17 14:56:37;;;;;;;3.25;1.85;;;;;;;5.44;100.00;99545.66;11168647;26;20004;-25
2024/04/17 15:01:41;;;;;;;2.75;1.60;;;;;;;5.47;100.00;99544.06;11177477;26;20004;-24
2024/04/17 15:06:43;;;;;;;3.88;1.65;;;;;;;5.51;100.00;99543.34;11170229;26;20000;-24
2024/04/17 15:11:44;;;;;;;3.40;1.63;;;;;;;5.49;100.00;99552.81;11174051;26;20000;-24
2024/04/17 15:16:46;;;;;;;3.08;1.40;;;;;;;5.52;100.00;99545.16;11171465;26;19999;-24
2024/04/17 15:21:48;;;;;;;4.15;1.90;;;;;;;5.64;100.00;99556.78;11177115;26;20019;-24
2024/04/17 15:26:50;;;;;;;5.32;1.90;;;;;;;5.71;100.00;99564.88;11179953;26;20011;-24
2024/04/17 15:31:51;;;;;;;2.92;1.80;;;;;;;5.61;100.00;99565.31;11179179;26;20004;-24
2024/04/17 15:36:52;;;;;;;3.38;1.90;;;;;;;5.56;100.00;99556.50;11186296;26;20015;-24
2024/04/17 15:41:53;;;;;;;3.75;2.30;;;;;;;5.59;100.00;99564.41;11163565;26;20369;-24
2024/04/17 15:46:54;;;;;;;3.70;2.13;;;;;;;5.66;100.00;99558.63;11154784;26;20078;-24
2024/04/17 15:51:56;;;;;;;5.68;2.50;;;;;;;5.72;100.00;99570.94;11186044;26;20004;-24
2024/04/17 15:56:57;;;;;;;14.90;8.20;;;;;;;5.96;100.00;99560.63;11172216;26;20004;-25
2024/04/17 16:01:58;;;;;;;20.42;10.95;;;;;;;6.20;100.00;99558.94;11185125;26;20006;-24
2024/04/17 16:06:59;;;;;;;7.95;4.80;;;;;;;6.16;100.00;99566.56;11179395;26;20005;-24
2024/04/17 16:12:01;;;;;;;200.05;78.72;;;;;;;6.21;100.00;99562.41;11185079;26;20012;-24
2024/04/17 16:17:02;;;;;;;103.85;44.25;;;;;;;6.31;100.00;99563.59;11184636;26;20080;-24
2024/04/17 16:22:03;;;;;;;60.60;32.75;;;;;;;6.28;100.00;99559.22;11182558;26;20010;-23
2024/04/17 16:27:05;;;;;;;7.15;3.05;;;;;;;6.08;100.00;99560.19;11184205;26;20501;-23
2024/04/17 16:32:09;;;;;;;11.80;5.07;;;;;;;6.00;100.00;99562.53;11181667;26;19996;-22
2024/04/17 16:37:10;;;;;;;9.70;3.65;;;;;;;5.82;100.00;99562.69;11166889;26;20111;-25
2024/04/17 16:42:12;;;;;;;8.90;3.90;;;;;;;5.83;100.00;99564.44;11188679;26;19999;-23
2024/04/17 16:47:13;;;;;;;9.02;3.70;;;;;;;5.77;100.00;99559.00;11191126;26;19995;-23
2024/04/17 16:52:14;;;;;;;7.50;3.88;;;;;;;5.72;100.00;99560.56;11189622;26;20003;-23
2024/04/17 16:57:15;;;;;;;13.70;7.28;;;;;;;5.81;100.00;99566.97;11194147;26;19999;-23
2024/04/17 17:02:16;;;;;;;9.88;4.05;;;;;;;5.81;100.00;99572.16;11260288;20;20333;-73
2024/04/17 17:07:18;;;;;;;5.55;3.22;;;;;;;5.85;100.00;99561.91;11249532;26;20332;-73
2024/04/17 17:12:19;;;;;;;7.97;3.70;;;;;;;5.85;100.00;99562.78;11233471;26;20013;-73
2024/04/17 17:17:20;;;;;;;7.68;3.50;;;;;;;5.97;100.00;99565.88;11232147;26;20010;-73
2024/04/17 17:22:23;;;;;;;13.63;7.30;;;;;;;5.94;100.00;99575.25;11206985;26;20423;-73
2024/04/17 17:27:24;;;;;;;8.13;4.35;;;;;;;5.97;100.00;99588.34;11234227;26;20445;-72
2024/04/17 17:32:25;;;;;;;7.10;3.22;;;;;;;5.85;100.00;99593.03;11224675;26;20015;-73
2024/04/17 17:37:26;;;;;;;12.90;4.18;;;;;;;5.72;100.00;99602.94;11259227;26;19998;-73
2024/04/17 17:42:28;;;;;;;10.43;4.20;;;;;;;5.73;100.00;99596.03;11227657;26;20077;-73
2024/04/17 17:47:29;;;;;;;6.18;3.60;;;;;;;5.63;100.00;99604.28;11229398;26;20363;-73
2024/04/17 17:52:30;;;;;;;10.48;3.90;;;;;;;5.47;100.00;99616.63;11202340;26;20014;-74
2024/04/17 17:57:32;;;;;;;8.50;4.30;;;;;;;5.27;100.00;99609.78;11193875;26;19999;-73
2024/04/17 18:02:33;;;;;;;8.45;4.05;;;;;;;5.15;100.00;99622.22;11227851;26;19999;-74
2024/04/17 18:07:35;;;;;;;8.43;4.38;;;;;;;5.17;100.00;99621.47;11193056;26;20424;-71
2024/04/17 18:12:36;;;;;;;12.55;4.82;;;;;;;4.89;100.00;99635.84;11214095;26;20015;-74
2024/04/17 18:17:38;;;;;;;12.02;4.63;;;;;;;4.80;100.00;99644.94;11188576;26;19999;-72
2024/04/17 18:22:39;;;;;;;6.47;3.78;;;;;;;4.85;100.00;99644.31;11189351;26;20011;-74
2024/04/17 18:27:40;;;;;;;10.23;4.10;;;;;;;4.89;100.00;99646.22;11204739;26;20011;-72
2024/04/17 18:32:42;;;;;;;7.50;3.92;;;;;;;4.89;100.00;99653.97;11238967;26;20007;-72
2024/04/17 18:37:43;;;;;;;4.30;2.97;;;;;;;4.81;100.00;99659.63;11267623;26;20071;-74
2024/04/17 18:42:44;;;;;;;6.35;2.90;;;;;;;4.79;100.00;99667.34;11237425;26;20003;-73
2024/04/17 18:47:48;;;;;;;5.20;2.95;;;;;;;4.78;100.00;99662.97;11230483;26;20018;-73
2024/04/17 18:52:49;;;;;;;7.10;3.00;;;;;;;4.67;100.00;99665.94;11227822;26;20013;-72
2024/04/17 18:57:54;;;;;;;5.18;3.10;;;;;;;4.69;100.00;99675.50;11179136;26;20027;-75
2024/04/17 19:02:55;;;;;;;6.13;3.28;;;;;;;4.76;100.00;99684.47;11224411;26;20011;-73
2024/04/17 19:07:56;;;;;;;6.15;3.45;;;;;;;4.70;100.00;99682.47;11207044;26;20134;-73
2024/04/17 19:12:57;;;;;;;6.63;3.40;;;;;;;4.63;100.00;99694.28;11271363;26;20003;-74
2024/04/17 19:17:58;;;;;;;11.05;5.07;;;;;;;4.64;100.00;99706.38;11207547;26;20014;-73
2024/04/17 19:23:00;;;;;;;7.35;4.30;;;;;;;4.71;100.00;99704.94;11238886;26;20002;-73
2024/04/17 19:28:01;;;;;;;7.20;4.20;;;;;;;4.74;100.00;99705.09;11187480;26;20561;-73
2024/04/17 19:33:04;;;;;;;5.82;3.75;;;;;;;4.82;100.00;99708.00;11248254;26;20010;-73
2024/04/17 19:38:06;;;;;;;7.03;3.58;;;;;;;4.80;100.00;99720.00;11255065;26;19999;-73
2024/04/17 19:43:07;;;;;;;9.30;4.63;;;;;;;4.79;100.00;99715.63;11262628;26;20349;-72
2024/04/17 19:48:08;;;;;;;8.98;4.80;;;;;;;4.64;100.00;99727.09;11203876;26;19991;-73
2024/04/17 19:53:09;;;;;;;9.77;5.30;;;;;;;4.68;100.00;99728.09;11277609;26;20007;-73
2024/04/17 19:58:10;;;;;;;9.57;4.70;;;;;;;4.52;100.00;99720.47;11282044;26;20010;-71
2024/04/17 20:03:12;;;;;;;8.52;4.80;;;;;;;4.49;100.00;99726.41;11234652;26;20389;-72
2024/04/17 20:08:13;;;;;;;8.93;4.80;;;;;;;4.41;100.00;99744.16;11208485;26;20007;-72
2024/04/17 20:13:14;;;;;;;7.53;4.38;;;;;;;4.50;100.00;99740.22;11261117;26;20067;-73
2024/04/17 20:18:15;;;;;;;7.57;4.75;;;;;;;4.53;100.00;99749.00;11270828;26;20447;-72
2024/04/17 20:23:16;;;;;;;7.50;3.90;;;;;;;4.46;100.00;99752.13;11202478;26;20445;-72
2024/04/17 20:28:17;;;;;;;6.30;3.53;;;;;;;4.48;100.00;99757.38;11250141;26;20003;-71
2024/04/17 20:33:19;;;;;;;7.75;4.13;;;;;;;4.46;100.00;99762.47;11205490;26;20018;-70
2024/04/17 20:38:20;;;;;;;7.93;4.00;;;;;;;4.49;100.00;99772.09;11260556;26;20014;-73
2024/04/17 20:43:21;;;;;;;8.15;3.92;;;;;;;4.58;100.00;99763.03;11259964;26;20014;-70
2024/04/17 20:48:22;;;;;;;7.75;4.07;;;;;;;4.70;100.00;99767.91;11207146;26;20011;-72
2024/04/17 20:53:24;;;;;;;7.07;4.25;;;;;;;4.63;100.00;99773.59;11203107;26;20014;-73
2024/04/17 20:58:25;;;;;;;8.05;4.60;;;;;;;4.67;100.00;99788.47;11226339;26;20003;-72
2024/04/17 21:03:26;;;;;;;8.88;4.90;;;;;;;4.82;100.00;99780.47;11230061;26;20053;-71
2024/04/17 21:08:28;;;;;;;10.55;5.45;;;;;;;4.78;100.00;99782.06;11233164;26;20005;-72
2024/04/17 21:13:29;;;;;;;10.75;4.80;;;;;;;4.75;100.00;99786.22;11225256;26;20341;-72
2024/04/17 21:18:30;;;;;;;7.65;4.57;;;;;;;4.76;100.00;99788.88;11222661;26;20344;-70
2024/04/17 21:23:32;;;;;;;7.93;5.10;;;;;;;4.72;100.00;99799.00;11247922;26;20022;-73
2024/04/17 21:28:34;;;;;;;7.93;4.90;;;;;;;4.73;100.00;99812.03;11233880;26;20022;-73
2024/04/17 21:33:35;;;;;;;10.52;5.38;;;;;;;4.67;100.00;99808.28;11229862;26;20071;-73
2024/04/17 21:38:36;;;;;;;9.48;5.30;;;;;;;4.57;100.00;99809.56;11246177;26;20407;-73
2024/04/17 21:43:37;;;;;;;10.20;5.63;;;;;;;4.60;100.00;99820.06;11185340;26;20018;-72
2024/04/17 21:48:39;;;;;;;12.20;5.70;;;;;;;4.63;100.00;99820.16;11182387;26;19995;-73
2024/04/17 21:53:40;;;;;;;10.02;5.85;;;;;;;4.56;100.00;99818.13;11230685;26;20464;-73
2024/04/17 21:58:41;;;;;;;11.73;5.75;;;;;;;4.50;100.00;99826.47;11267806;26;20003;-73
2024/04/17 22:03:42;;;;;;;12.48;6.32;;;;;;;4.60;100.00;99825.25;11241049;26;20010;-73
2024/04/17 22:08:44;;;;;;;11.00;6.40;;;;;;;4.56;100.00;99831.94;11198238;26;20045;-73
2024/04/17 22:13:45;;;;;;;14.23;6.80;;;;;;;4.68;100.00;99842.00;11219675;26;20006;-74
2024/04/17 22:18:46;;;;;;;12.07;7.05;;;;;;;4.58;100.00;99840.69;11259916;26;20071;-74
2024/04/17 22:23:47;;;;;;;13.13;6.65;;;;;;;4.50;100.00;99834.25;11228814;26;20011;-73
2024/04/17 22:28:49;;;;;;;11.40;7.03;;;;;;;4.58;100.00;99842.38;11236063;26;20410;-74
2024/04/17 22:33:50;;;;;;;12.10;7.18;;;;;;;4.31;100.00;99850.59;11235916;26;20537;-74
2024/04/17 22:38:51;;;;;;;12.88;6.93;;;;;;;4.39;100.00;99854.44;11192999;26;20010;-73
2024/04/17 22:43:53;;;;;;;15.43;7.63;;;;;;;4.46;100.00;99859.91;11199508;26;20010;-74
2024/04/17 22:48:54;;;;;;;16.30;7.78;;;;;;;4.31;100.00;99860.94;11266711;26;20007;-74
2024/04/17 22:53:56;;;;;;;15.15;7.72;;;;;;;4.18;100.00;99863.75;11230934;26;20071;-74
2024/04/17 22:59:00;;;;;;;14.70;7.97;;;;;;;4.22;100.00;99870.88;11268257;26;20022;-74
2024/04/17 23:04:01;;;;;;;15.93;8.88;;;;;;;4.15;100.00;99873.94;10877706;21;20018;-23
2024/04/17 23:09:02;;;;;;;16.73;9.00;;;;;;;4.26;100.00;99880.53;10813463;27;20011;-23
2024/04/17 23:14:04;;;;;;;18.13;9.20;;;;;;;4.35;100.00;99881.00;10803145;27;20004;-23
2024/04/17 23:19:06;;;;;;;14.98;8.60;;;;;;;4.24;100.00;99887.31;10822489;27;20010;-24